Time;durP1;ratioP1;P1;durP2;ratioP2;P2;SDS_P1;SDS_P2;PMS_P1;PMS_P2;Temp;Humidity;BMP_temperature;BMP_pressure;BME280_temperature;BME280_humidity;BME280_pressure;Samples;Min_cycle;Max_cycle;Signal;HPM_P1;HPM_P2
2021/09/03 00:02:37;;;;;;;7.35;3.90;;;;;;;11.84;100.00;100800.97;6288748;28;20048;-86
2021/09/03 00:05:38;;;;;;;5.63;3.80;;;;;;;11.78;100.00;100796.94;6288980;28;20040;-85
2021/09/03 00:08:39;;;;;;;6.03;3.65;;;;;;;11.69;100.00;100795.69;6271818;28;20067;-85
2021/09/03 00:11:40;;;;;;;7.13;3.67;;;;;;;11.67;100.00;100789.69;6305309;28;20127;-85
2021/09/03 00:14:41;;;;;;;5.95;3.50;;;;;;;11.59;100.00;100789.25;6272355;28;20048;-84
2021/09/03 00:17:42;;;;;;;7.47;3.78;;;;;;;11.54;100.00;100787.81;6305069;28;20494;-85
2021/09/03 00:20:43;;;;;;;8.18;4.10;;;;;;;11.52;100.00;100790.50;6288600;28;20047;-85
2021/09/03 00:23:44;;;;;;;6.55;3.53;;;;;;;11.49;100.00;100782.84;6305070;28;20410;-85
2021/09/03 00:26:45;;;;;;;8.32;3.70;;;;;;;11.39;100.00;100785.09;6271509;28;20040;-85
2021/09/03 00:29:46;;;;;;;5.65;3.65;;;;;;;11.34;100.00;100778.41;6271663;28;20497;-85
2021/09/03 00:32:46;;;;;;;5.43;3.58;;;;;;;11.30;100.00;100788.16;6288023;28;20047;-84
2021/09/03 00:35:47;;;;;;;6.43;3.80;;;;;;;11.25;100.00;100784.97;6288362;28;20093;-85
2021/09/03 00:38:48;;;;;;;7.65;3.90;;;;;;;11.17;100.00;100782.75;6271634;28;20105;-84
2021/09/03 00:41:49;;;;;;;9.48;4.40;;;;;;;11.09;100.00;100788.34;6304244;28;20048;-84
2021/09/03 00:44:50;;;;;;;4.18;3.50;;;;;;;11.14;100.00;100787.28;6287151;28;20040;-84
2021/09/03 00:47:50;;;;;;;6.70;3.80;;;;;;;11.17;100.00;100787.97;6270949;28;20040;-85
2021/09/03 00:50:53;;;;;;;8.48;3.60;;;;;;;11.16;100.00;100788.91;6269290;28;20474;-80
2021/09/03 00:53:53;;;;;;;;;;;;;;;11.09;100.00;100796.19;6302824;28;20395;-80
2021/09/03 00:56:55;;;;;;;5.82;3.78;;;;;;;11.14;100.00;100790.75;6286240;28;19942;-84
2021/09/03 00:59:56;;;;;;;5.15;3.60;;;;;;;11.11;100.00;100790.88;6303916;28;20625;-85
2021/09/03 01:02:56;;;;;;;6.18;3.72;;;;;;;11.07;100.00;100794.59;6270859;28;20063;-84
2021/09/03 01:06:02;;;;;;;7.03;4.40;;;;;;;10.94;100.00;100786.53;6304311;28;20037;-85
2021/09/03 01:09:03;;;;;;;5.30;3.83;;;;;;;10.96;100.00;100781.25;6288274;28;20540;-85
2021/09/03 01:12:04;;;;;;;6.88;4.32;;;;;;;10.97;100.00;100777.69;6287444;28;20040;-85
2021/09/03 01:15:05;;;;;;;6.88;4.13;;;;;;;10.97;100.00;100775.91;6271288;28;20043;-85
2021/09/03 01:18:06;;;;;;;6.53;4.10;;;;;;;10.84;100.00;100778.31;6320894;28;20126;-85
2021/09/03 01:21:07;;;;;;;7.38;4.38;;;;;;;10.84;100.00;100770.50;6322227;28;20500;-85
2021/09/03 01:24:08;;;;;;;5.70;4.20;;;;;;;10.87;100.00;100772.97;6287515;28;20036;-85
2021/09/03 01:27:09;;;;;;;6.40;3.90;;;;;;;10.81;100.00;100767.19;6287277;28;20040;-85
2021/09/03 01:30:12;;;;;;;5.40;3.75;;;;;;;10.81;100.00;100772.41;6270708;28;20040;-84
2021/09/03 01:33:13;;;;;;;6.88;4.40;;;;;;;10.69;100.00;100758.22;6321729;28;20067;-84
2021/09/03 01:36:14;;;;;;;9.02;4.28;;;;;;;10.74;100.00;100760.59;6270440;28;20486;-85
2021/09/03 01:39:15;;;;;;;6.15;4.03;;;;;;;10.69;100.00;100759.06;6285346;28;20040;-80
2021/09/03 01:42:16;;;;;;;6.50;4.32;;;;;;;10.66;100.00;100764.41;6319491;28;20137;-79
2021/09/03 01:45:17;;;;;;;8.02;4.65;;;;;;;10.65;100.00;100765.34;6303214;28;20376;-85
2021/09/03 01:48:17;;;;;;;9.73;5.03;;;;;;;10.61;100.00;100762.97;6270251;28;20044;-84
2021/09/03 01:51:18;;;;;;;8.45;4.88;;;;;;;10.64;100.00;100757.59;6270390;28;20047;-84
2021/09/03 01:54:19;;;;;;;7.15;4.40;;;;;;;10.66;100.00;100758.34;6304666;28;20092;-84
2021/09/03 01:57:20;;;;;;;7.70;4.20;;;;;;;10.69;100.00;100759.06;6290382;28;20100;-79
2021/09/03 02:00:21;;;;;;;9.00;4.15;;;;;;;10.78;100.00;100760.34;6289678;28;20077;-79
2021/09/03 02:03:21;;;;;;;6.68;4.50;;;;;;;10.82;100.00;100759.28;6282810;28;20453;-79
2021/09/03 02:06:22;;;;;;;8.18;4.43;;;;;;;10.83;100.00;100760.97;6264962;28;20407;-85
2021/09/03 02:09:23;;;;;;;8.63;4.70;;;;;;;10.82;100.00;100758.44;6265626;28;20131;-79
2021/09/03 02:12:24;;;;;;;7.90;4.30;;;;;;;10.80;100.00;100757.69;6264400;28;20510;-79
2021/09/03 02:15:25;;;;;;;7.03;4.32;;;;;;;10.79;100.00;100750.75;6280683;28;20036;-79
2021/09/03 02:18:25;;;;;;;7.00;4.25;;;;;;;10.71;100.00;100734.63;6281726;28;20110;-79
2021/09/03 02:21:26;;;;;;;6.28;4.35;;;;;;;10.62;100.00;100743.78;6283059;28;20047;-85
2021/09/03 02:24:27;;;;;;;7.55;4.32;;;;;;;10.62;100.00;100741.16;6249379;28;20174;-79
2021/09/03 02:27:27;;;;;;;6.35;3.78;;;;;;;10.64;100.00;100744.53;6263977;28;20106;-79
2021/09/03 02:30:28;;;;;;;5.45;3.67;;;;;;;10.63;100.00;100733.28;6247536;28;20040;-80
2021/09/03 02:33:29;;;;;;;9.80;4.75;;;;;;;10.66;100.00;100732.25;6249079;28;20059;-85
2021/09/03 02:36:30;;;;;;;6.32;3.80;;;;;;;10.55;100.00;100732.81;6266170;28;20040;-80
2021/09/03 02:39:30;;;;;;;7.10;4.10;;;;;;;10.54;100.00;100730.28;6280149;28;20044;-79
2021/09/03 02:42:31;;;;;;;7.90;4.30;;;;;;;10.45;100.00;100735.03;6263679;28;20043;-79
2021/09/03 02:45:32;;;;;;;10.55;3.88;;;;;;;10.41;100.00;100736.09;6263772;28;20051;-79
2021/09/03 02:48:33;;;;;;;6.43;4.05;;;;;;;10.46;100.00;100734.13;6263397;28;20055;-79
2021/09/03 02:51:34;;;;;;;6.10;3.95;;;;;;;10.32;100.00;100736.56;6263453;28;20045;-79
2021/09/03 02:54:34;;;;;;;6.05;4.13;;;;;;;10.34;100.00;100736.50;6281107;28;20040;-84
2021/09/03 02:57:35;;;;;;;9.65;4.10;;;;;;;10.27;100.00;100733.28;6265528;28;20425;-85
2021/09/03 03:00:36;;;;;;;7.45;4.18;;;;;;;10.26;100.00;100735.06;6265142;28;20169;-79
2021/09/03 03:03:37;;;;;;;4.55;3.47;;;;;;;10.19;100.00;100733.69;6263648;28;20033;-84
2021/09/03 03:06:37;;;;;;;8.20;4.20;;;;;;;10.21;100.00;100726.63;6263700;28;20064;-79
2021/09/03 03:09:38;;;;;;;11.23;4.25;;;;;;;10.21;100.00;100715.34;6262893;28;20037;-80
2021/09/03 03:12:39;;;;;;;6.32;4.38;;;;;;;10.04;100.00;100717.00;6297357;28;20040;-80
2021/09/03 03:15:40;;;;;;;6.65;3.75;;;;;;;10.11;100.00;100719.31;6262901;28;20129;-80
2021/09/03 03:18:42;;;;;;;5.80;4.03;;;;;;;9.99;100.00;100721.59;6263024;28;20072;-80
2021/09/03 03:21:43;;;;;;;7.88;4.43;;;;;;;10.03;100.00;100723.13;6279832;28;20044;-84
2021/09/03 03:24:43;;;;;;;8.65;4.32;;;;;;;9.97;100.00;100717.38;6281084;28;20545;-84
2021/09/03 03:27:44;;;;;;;6.97;4.43;;;;;;;10.00;100.00;100719.81;6247007;28;20136;-79
2021/09/03 03:30:45;;;;;;;6.70;4.25;;;;;;;9.95;100.00;100724.44;6246201;28;20089;-79
2021/09/03 03:33:46;;;;;;;6.75;4.22;;;;;;;9.97;100.00;100726.03;6262620;28;20505;-80
2021/09/03 03:36:47;;;;;;;6.85;4.03;;;;;;;9.93;100.00;100726.28;6297135;28;20047;-80
2021/09/03 03:39:47;;;;;;;6.22;3.63;;;;;;;9.89;100.00;100720.34;6262302;28;20110;-80
2021/09/03 03:42:48;;;;;;;7.25;4.25;;;;;;;9.87;100.00;100728.22;6245788;28;20446;-80
2021/09/03 03:45:49;;;;;;;5.55;3.95;;;;;;;9.79;100.00;100721.69;6262350;28;20032;-80
2021/09/03 03:48:50;;;;;;;7.90;4.63;;;;;;;9.75;100.00;100725.38;6262020;28;20040;-80
2021/09/03 03:51:50;;;;;;;8.23;4.35;;;;;;;9.73;100.00;100735.84;6245689;28;20055;-80
2021/09/03 03:54:51;;;;;;;6.38;3.95;;;;;;;9.76;100.00;100722.69;6245614;28;20044;-79
2021/09/03 03:57:52;;;;;;;7.82;4.90;;;;;;;9.71;100.00;100716.84;6262161;28;20036;-85
2021/09/03 04:00:53;;;;;;;6.53;4.07;;;;;;;9.75;100.00;100723.59;6247362;28;20041;-87
2021/09/03 04:03:53;;;;;;;8.90;4.45;;;;;;;9.83;100.00;100725.84;6263594;28;20093;-87
2021/09/03 04:06:54;;;;;;;7.63;4.78;;;;;;;9.81;100.00;100730.28;6231615;28;20526;-85
2021/09/03 04:09:55;;;;;;;7.43;4.50;;;;;;;9.83;100.00;100721.47;6279921;28;20048;-85
2021/09/03 04:12:56;;;;;;;8.82;4.47;;;;;;;9.84;100.00;100727.53;6263494;28;20055;-85
2021/09/03 04:15:57;;;;;;;10.40;4.47;;;;;;;9.81;100.00;100725.09;6280010;28;20554;-85
2021/09/03 04:18:57;;;;;;;11.35;5.10;;;;;;;9.85;100.00;100730.06;6279071;28;20482;-85
2021/09/03 04:21:58;;;;;;;9.35;4.82;;;;;;;9.92;100.00;100732.38;6280090;28;20045;-85
2021/09/03 04:24:59;;;;;;;11.77;4.57;;;;;;;10.06;100.00;100735.19;6263565;28;20565;-86
2021/09/03 04:28:00;;;;;;;8.98;5.13;;;;;;;10.14;100.00;100732.22;6263076;28;20090;-81
2021/09/03 04:31:01;;;;;;;16.58;5.13;;;;;;;10.22;100.00;100735.28;6280625;28;20040;-82
2021/09/03 04:34:01;;;;;;;9.05;5.30;;;;;;;10.23;100.00;100726.53;6320615;28;20109;-81
2021/09/03 04:37:03;;;;;;;12.73;4.95;;;;;;;10.27;100.00;100725.47;6270255;28;20055;-85
2021/09/03 04:40:04;;;;;;;10.25;5.55;;;;;;;10.31;100.00;100734.84;6270943;28;20056;-85
2021/09/03 04:43:05;;;;;;;9.43;5.00;;;;;;;10.37;100.00;100726.72;6271010;28;20052;-85
2021/09/03 04:46:05;;;;;;;10.50;5.05;;;;;;;10.52;100.00;100734.72;6270275;28;20097;-82
2021/09/03 04:49:06;;;;;;;13.25;5.50;;;;;;;10.62;100.00;100730.72;6269002;28;20051;-81
2021/09/03 04:52:07;;;;;;;8.65;5.75;;;;;;;10.65;100.00;100735.81;6285422;28;20165;-81
2021/09/03 04:55:08;;;;;;;11.13;6.10;;;;;;;10.61;100.00;100732.50;6285834;28;20040;-81
2021/09/03 04:58:09;;;;;;;13.45;5.63;;;;;;;10.66;100.00;100740.09;6301844;28;20048;-82
2021/09/03 05:01:10;;;;;;;9.85;5.55;;;;;;;10.65;100.00;100735.81;6260585;28;20037;-81
2021/09/03 05:04:10;;;;;;;11.70;6.20;;;;;;;10.69;100.00;100738.19;6260648;28;20041;-81
2021/09/03 05:07:11;;;;;;;11.23;6.07;;;;;;;10.77;100.00;100743.03;6244383;28;20495;-81
2021/09/03 05:10:12;;;;;;;9.40;5.40;;;;;;;10.85;100.00;100743.47;6244020;28;20118;-80
2021/09/03 05:13:13;;;;;;;10.55;5.40;;;;;;;10.92;100.00;100737.94;6277077;28;20048;-81
2021/09/03 05:16:14;;;;;;;9.77;6.15;;;;;;;10.96;100.00;100732.47;6277484;28;20041;-81
2021/09/03 05:19:14;;;;;;;9.55;5.38;;;;;;;11.06;100.00;100736.28;6268740;28;20093;-81
2021/09/03 05:22:16;;;;;;;9.18;5.00;;;;;;;11.15;100.00;100729.75;6268979;28;20055;-80
2021/09/03 05:25:17;;;;;;;10.32;5.38;;;;;;;11.22;100.00;100735.47;6301913;28;20051;-80
2021/09/03 05:28:18;;;;;;;9.05;6.07;;;;;;;11.35;100.00;100735.69;6268625;28;20040;-80
2021/09/03 05:31:19;;;;;;;12.88;6.03;;;;;;;11.48;100.00;100739.31;6285867;28;20098;-80
2021/09/03 05:34:20;;;;;;;12.38;7.13;;;;;;;11.62;100.00;100741.19;6265040;28;20037;-80
2021/09/03 05:37:21;;;;;;;13.93;7.40;;;;;;;11.78;100.00;100741.22;6264805;28;20045;-81
2021/09/03 05:40:22;;;;;;;13.05;7.15;;;;;;;11.97;100.00;100735.81;6262719;28;20059;-81
2021/09/03 05:43:24;;;;;;;16.05;6.38;;;;;;;12.21;100.00;100738.81;6264037;28;20090;-81
2021/09/03 05:46:25;;;;;;;11.48;5.93;;;;;;;12.53;100.00;100733.50;6282082;28;20105;-85
2021/09/03 05:49:25;;;;;;;10.23;5.47;;;;;;;12.76;100.00;100748.69;6299103;28;20479;-80
2021/09/03 05:52:26;;;;;;;11.25;5.82;;;;;;;12.87;100.00;100737.59;6248471;28;20475;-85
2021/09/03 05:55:27;;;;;;;8.32;5.40;;;;;;;12.96;100.00;100741.44;6265572;28;20036;-84
2021/09/03 05:58:28;;;;;;;7.53;4.97;;;;;;;13.08;100.00;100728.44;6264922;28;20048;-81
2021/09/03 06:01:29;;;;;;;8.30;5.72;;;;;;;13.28;100.00;100737.72;6264718;28;20502;-85
2021/09/03 06:04:29;;;;;;;10.98;6.10;;;;;;;13.56;100.00;100736.03;6281713;28;20032;-85
2021/09/03 06:07:30;;;;;;;14.68;6.28;;;;;;;13.65;100.00;100730.22;6265030;28;20222;-85
2021/09/03 06:10:31;;;;;;;13.80;5.82;;;;;;;13.73;100.00;100734.13;6264233;28;20040;-85
2021/09/03 06:13:33;;;;;;;11.90;5.90;;;;;;;13.82;100.00;100737.00;6281191;28;20037;-85
2021/09/03 06:16:34;;;;;;;9.23;5.32;;;;;;;14.00;100.00;100734.13;6232159;28;20411;-85
2021/09/03 06:19:34;;;;;;;8.65;4.35;;;;;;;14.13;100.00;100731.56;6280650;28;20044;-81
2021/09/03 06:22:35;;;;;;;8.77;4.03;;;;;;;14.28;96.18;100726.16;6247874;28;20494;-84
2021/09/03 06:25:36;;;;;;;8.20;3.20;;;;;;;14.49;90.31;100723.88;6264506;28;20090;-80
2021/09/03 06:28:37;;;;;;;8.15;3.15;;;;;;;14.65;93.99;100733.41;6263924;28;20123;-86
2021/09/03 06:31:37;;;;;;;5.10;2.80;;;;;;;14.78;91.20;100731.63;6248238;28;20041;-85
2021/09/03 06:34:41;;;;;;;8.27;2.95;;;;;;;14.88;90.18;100742.34;6263870;28;20041;-80
2021/09/03 06:37:42;;;;;;;6.03;2.72;;;;;;;14.90;88.89;100740.44;6280435;28;20036;-80
2021/09/03 06:40:43;;;;;;;7.72;2.83;;;;;;;15.04;83.99;100742.97;6279821;28;20056;-85
2021/09/03 06:43:46;;;;;;;5.50;3.17;;;;;;;15.14;87.03;100745.00;6247967;28;20518;-85
2021/09/03 06:46:47;;;;;;;11.27;3.47;;;;;;;15.29;88.35;100755.25;6248267;28;20058;-85
2021/09/03 06:49:47;;;;;;;6.97;3.67;;;;;;;15.45;87.24;100752.41;6280371;28;20040;-80
2021/09/03 06:52:48;;;;;;;5.43;2.92;;;;;;;15.61;85.08;100753.97;6279709;28;20429;-80
2021/09/03 06:55:49;;;;;;;4.57;3.17;;;;;;;15.73;85.33;100747.00;6280295;28;20039;-85
2021/09/03 06:58:50;;;;;;;6.90;3.13;;;;;;;15.87;79.59;100749.47;6280531;28;20049;-85
2021/09/03 07:01:51;;;;;;;4.18;2.75;;;;;;;16.08;76.62;100747.06;6263734;28;20049;-80
2021/09/03 07:04:52;;;;;;;6.35;3.10;;;;;;;16.22;76.17;100739.00;6262974;28;20070;-80
2021/09/03 07:07:53;;;;;;;6.07;3.00;;;;;;;16.30;77.70;100741.06;6262760;28;20041;-80
2021/09/03 07:10:53;;;;;;;5.40;3.22;;;;;;;16.43;79.40;100738.38;6262990;28;20483;-86
2021/09/03 07:13:54;;;;;;;7.68;3.50;;;;;;;16.58;76.71;100734.59;6264019;28;20048;-85
2021/09/03 07:16:55;;;;;;;4.82;2.83;;;;;;;16.68;74.40;100725.03;6246738;28;20513;-85
2021/09/03 07:19:56;;;;;;;4.88;3.42;;;;;;;16.77;75.31;100727.94;6246629;28;20052;-80
2021/09/03 07:22:57;;;;;;;5.50;3.28;;;;;;;16.85;77.85;100729.03;6246556;28;20094;-86
2021/09/03 07:26:00;;;;;;;6.22;3.28;;;;;;;16.95;76.10;100731.81;6246566;28;20094;-86
2021/09/03 07:29:04;;;;;;;5.70;3.30;;;;;;;17.11;75.19;100731.44;6263117;28;20040;-86
2021/09/03 07:32:05;;;;;;;5.13;3.55;;;;;;;17.28;74.59;100733.63;6278813;28;20137;-80
2021/09/03 07:35:06;;;;;;;6.60;3.40;;;;;;;17.29;70.34;100737.94;6245799;28;20094;-80
2021/09/03 07:38:07;;;;;;;6.20;3.40;;;;;;;17.47;73.78;100733.00;6278904;28;20281;-80
2021/09/03 07:41:08;;;;;;;6.50;3.28;;;;;;;17.61;71.96;100736.38;6237222;28;20053;-80
2021/09/03 07:44:09;;;;;;;7.05;3.97;;;;;;;17.71;70.50;100732.03;6253784;28;20170;-80
2021/09/03 07:47:10;;;;;;;6.20;3.45;;;;;;;17.76;67.48;100735.13;6270345;28;20120;-80
2021/09/03 07:50:11;;;;;;;8.60;3.90;;;;;;;17.77;65.70;100735.97;6253750;28;20048;-80
2021/09/03 07:53:12;;;;;;;7.00;3.90;;;;;;;17.99;66.21;100727.19;6270533;28;20041;-87
2021/09/03 07:56:12;;;;;;;5.80;3.75;;;;;;;18.16;67.33;100723.16;6254696;28;20068;-88
2021/09/03 07:59:13;;;;;;;7.82;3.65;;;;;;;18.33;67.58;100726.09;6254385;28;20186;-87
2021/09/03 08:02:14;;;;;;;8.20;3.65;;;;;;;18.36;68.22;100726.78;6221059;28;20106;-80
2021/09/03 08:05:15;;;;;;;6.35;3.97;;;;;;;18.45;64.71;100718.94;6253487;28;20588;-80
2021/09/03 08:08:15;;;;;;;6.30;4.03;;;;;;;18.57;63.19;100713.59;6287178;28;20125;-88
2021/09/03 08:11:16;;;;;;;5.93;3.90;;;;;;;18.71;65.56;100716.72;6255064;28;20067;-88
2021/09/03 08:14:18;;;;;;;5.45;4.00;;;;;;;18.95;65.43;100725.41;6238602;28;20041;-87
2021/09/03 08:17:18;;;;;;;6.18;3.97;;;;;;;19.11;63.41;100720.47;6254314;28;20040;-89
2021/09/03 08:20:19;;;;;;;4.75;3.58;;;;;;;19.25;64.86;100727.19;6269736;28;20056;-87
2021/09/03 08:23:20;;;;;;;6.07;3.27;;;;;;;19.46;64.58;100720.03;6270768;28;20115;-89
2021/09/03 08:26:21;;;;;;;10.23;4.13;;;;;;;19.73;65.84;100726.53;6253486;28;20043;-80
2021/09/03 08:29:22;;;;;;;8.83;3.93;;;;;;;19.88;60.38;100717.19;6237010;28;20472;-89
2021/09/03 08:32:23;;;;;;;4.77;3.20;;;;;;;20.00;62.16;100709.16;6269672;28;20044;-81
2021/09/03 08:35:24;;;;;;;9.43;3.53;;;;;;;20.16;60.95;100706.78;6270034;28;20369;-82
2021/09/03 08:38:24;;;;;;;7.53;3.90;;;;;;;20.14;58.03;100706.06;6253023;28;20441;-82
2021/09/03 08:41:26;;;;;;;6.43;4.20;;;;;;;20.21;60.22;100711.66;6236268;28;20049;-88
2021/09/03 08:44:32;;;;;;;6.13;4.18;;;;;;;20.24;55.79;100706.06;6254034;28;20094;-88
2021/09/03 08:47:33;;;;;;;10.13;4.30;;;;;;;20.18;57.63;100706.63;6270685;28;20093;-80
2021/09/03 08:50:34;;;;;;;6.10;4.20;;;;;;;20.24;57.24;100695.47;6287128;28;20040;-87
2021/09/03 08:53:35;;;;;;;6.93;4.30;;;;;;;20.25;56.22;100695.31;6253174;28;20712;-80
2021/09/03 08:56:36;;;;;;;5.60;4.13;;;;;;;20.25;57.83;100694.50;6254725;28;20041;-87
2021/09/03 08:59:36;;;;;;;7.13;4.07;;;;;;;20.43;60.36;100689.31;6236233;28;20499;-89
2021/09/03 09:02:55;;;;;;;7.20;4.47;;;;;;;20.72;55.13;100678.69;6254660;28;20069;-87
2021/09/03 09:05:59;;;;;;;8.73;4.20;;;;;;;20.92;56.47;100692.72;6272502;28;20114;-88
2021/09/03 09:09:06;;;;;;;9.77;4.32;;;;;;;21.26;56.48;100686.81;6254661;28;20044;-87
2021/09/03 09:12:11;;;;;;;8.90;4.38;;;;;;;21.34;56.51;100682.44;6255508;28;20045;-87
2021/09/03 09:15:13;;;;;;;6.97;4.15;;;;;;;21.28;56.37;100677.72;6270844;28;20049;-88
2021/09/03 09:18:50;;;;;;;7.95;3.75;;;;;;;21.06;55.34;100673.63;6253826;28;20045;-81
2021/09/03 09:21:59;;;;;;;7.25;3.92;;;;;;;21.37;55.15;100673.34;6268707;28;20057;-81
2021/09/03 09:25:18;;;;;;;6.15;3.95;;;;;;;21.59;51.00;100677.44;6270370;28;20523;-80
2021/09/03 09:28:20;;;;;;;7.53;3.45;;;;;;;21.79;51.70;100664.03;6269031;28;20184;-88
2021/09/03 09:31:35;;;;;;;7.50;3.85;;;;;;;21.11;53.38;100662.63;6253075;28;20047;-88
2021/09/03 09:34:39;;;;;;;6.43;3.42;;;;;;;21.90;53.85;100669.94;6268535;28;20052;-80
2021/09/03 09:37:52;;;;;;;6.35;3.80;;;;;;;21.92;50.36;100654.69;6269781;28;20048;-88
2021/09/03 09:40:58;;;;;;;5.90;3.65;;;;;;;22.12;53.97;100663.31;6283476;28;20418;-88
2021/09/03 09:43:59;;;;;;;6.05;3.28;;;;;;;21.38;55.05;100660.94;6295276;28;20037;-89
2021/09/03 09:47:07;;;;;;;5.57;3.30;;;;;;;21.28;55.25;100656.50;6277577;28;20094;-90
2021/09/03 09:50:33;;;;;;;5.05;3.15;;;;;;;22.25;48.22;100654.16;6277702;28;20033;-89
2021/09/03 09:53:33;;;;;;;5.22;2.97;;;;;;;22.73;50.98;100656.28;6260312;28;20048;-81
2021/09/03 09:56:43;;;;;;;8.87;3.63;;;;;;;21.71;48.44;100647.03;6294479;28;20128;-80
2021/09/03 09:59:45;;;;;;;10.18;4.53;;;;;;;21.14;57.26;100647.22;6294456;28;20040;-81
2021/09/03 10:02:48;;;;;;;8.93;3.60;;;;;;;21.22;52.55;100648.31;6259949;28;20041;-80
2021/09/03 10:05:49;;;;;;;6.25;3.35;;;;;;;21.47;49.34;100636.16;6293014;28;20067;-79
2021/09/03 10:08:51;;;;;;;5.35;3.42;;;;;;;21.78;53.94;100638.44;6227209;28;20044;-80
2021/09/03 10:11:54;;;;;;;4.97;2.83;;;;;;;22.50;47.09;100628.56;6259899;28;20033;-82
2021/09/03 10:14:55;;;;;;;3.90;2.90;;;;;;;22.82;43.75;100627.06;6294108;28;20036;-80
2021/09/03 10:17:56;;;;;;;5.90;3.10;;;;;;;22.72;42.06;100628.00;6246680;28;20131;-88
2021/09/03 10:20:58;;;;;;;8.97;2.80;;;;;;;22.37;46.88;100621.00;6281084;28;20486;-85
2021/09/03 10:24:11;;;;;;;4.40;2.80;;;;;;;23.24;47.36;100624.41;6281065;28;20032;-82
2021/09/03 10:27:12;;;;;;;3.75;2.97;;;;;;;23.81;48.10;100617.56;6281192;28;20044;-83
2021/09/03 10:30:16;;;;;;;4.25;2.70;;;;;;;24.05;47.86;100617.56;6280714;28;20041;-81
2021/09/03 10:33:16;;;;;;;5.90;3.03;;;;;;;24.36;45.66;100613.31;6280633;28;20036;-83
2021/09/03 10:36:56;;;;;;;6.87;2.73;;;;;;;24.58;45.17;100609.97;6248153;28;20041;-88
2021/09/03 10:40:05;;;;;;;5.72;3.22;;;;;;;24.67;46.39;100605.47;6280475;28;20064;-86
2021/09/03 10:43:07;;;;;;;8.88;3.58;;;;;;;24.68;45.17;100610.59;6281922;28;20047;-88
2021/09/03 10:46:10;;;;;;;6.93;3.80;;;;;;;23.97;42.97;100601.56;6247597;28;20068;-81
2021/09/03 10:49:11;;;;;;;3.83;2.90;;;;;;;23.27;46.76;100615.28;6296864;28;20037;-88
2021/09/03 10:52:12;;;;;;;5.93;3.50;;;;;;;23.30;45.26;100607.78;6232430;28;20400;-87
2021/09/03 10:55:14;;;;;;;4.67;3.10;;;;;;;23.56;46.57;100608.69;6281071;28;20402;-87
2021/09/03 10:58:42;;;;;;;7.38;3.03;;;;;;;23.99;44.23;100601.38;6281296;28;20041;-88
2021/09/03 11:01:50;;;;;;;4.07;2.80;;;;;;;24.48;42.67;100595.94;6279821;28;20047;-87
2021/09/03 11:04:51;;;;;;;7.68;2.85;;;;;;;23.84;41.19;100595.88;6280925;28;20072;-83
2021/09/03 11:07:51;;;;;;;8.23;3.23;;;;;;;24.16;44.19;100592.38;6279622;28;20094;-81
2021/09/03 11:10:52;;;;;;;5.37;2.80;;;;;;;24.40;41.01;100590.66;6263324;28;20350;-87
2021/09/03 11:13:56;;;;;;;4.50;2.53;;;;;;;24.82;45.52;100598.38;6263643;28;20040;-88
2021/09/03 11:17:13;;;;;;;5.90;2.88;;;;;;;25.14;42.09;100596.53;6280502;28;20457;-88
2021/09/03 11:20:14;;;;;;;5.05;3.08;;;;;;;25.34;40.85;100589.78;6280037;28;20044;-81
2021/09/03 11:23:16;;;;;;;5.30;3.22;;;;;;;25.66;43.34;100593.22;6230172;28;20139;-81
2021/09/03 11:26:16;;;;;;;4.30;3.00;;;;;;;25.72;42.85;100589.03;6246098;28;20448;-80
2021/09/03 11:29:29;;;;;;;7.05;3.40;;;;;;;25.60;39.56;100587.78;6262678;28;20045;-86
2021/09/03 11:32:38;;;;;;;4.75;3.45;;;;;;;24.51;41.24;100583.16;6279861;28;20063;-88
2021/09/03 11:35:39;;;;;;;9.20;3.25;;;;;;;23.65;43.85;100578.38;6262912;28;20044;-81
2021/09/03 11:38:40;;;;;;;6.90;2.87;;;;;;;23.72;45.55;100590.03;6279134;28;20048;-87
2021/09/03 11:41:50;;;;;;;4.65;2.95;;;;;;;24.02;44.80;100575.22;6262880;28;20339;-89
2021/09/03 11:45:01;;;;;;;7.82;3.20;;;;;;;24.44;44.08;100581.31;6263155;28;20040;-88
2021/09/03 11:48:09;;;;;;;5.13;3.28;;;;;;;23.92;46.58;100578.06;6279830;28;20066;-88
2021/09/03 11:51:25;;;;;;;4.22;3.22;;;;;;;23.39;47.62;100567.88;6280595;28;20040;-86
2021/09/03 11:54:26;;;;;;;7.50;3.10;;;;;;;22.77;48.65;100569.00;6248835;28;20052;-82
2021/09/03 11:57:28;;;;;;;6.53;3.20;;;;;;;22.59;53.63;100570.91;6261782;28;20071;-82
2021/09/03 12:00:37;;;;;;;9.30;3.20;;;;;;;22.47;47.45;100565.91;6278304;28;20406;-82
2021/09/03 12:03:46;;;;;;;8.98;3.22;;;;;;;22.39;48.26;100557.88;6278093;28;20040;-80
2021/09/03 12:06:47;;;;;;;5.00;3.20;;;;;;;22.77;45.17;100546.91;6295857;28;20063;-81
2021/09/03 12:09:48;;;;;;;3.93;3.00;;;;;;;22.44;47.03;100550.25;6244841;28;20498;-81
2021/09/03 12:12:49;;;;;;;5.65;3.10;;;;;;;22.54;51.72;100556.28;6244998;28;20037;-81
2021/09/03 12:16:00;;;;;;;6.93;3.27;;;;;;;22.25;44.74;100553.16;6261465;28;20041;-80
2021/09/03 12:19:05;;;;;;;4.13;2.80;;;;;;;22.12;46.12;100548.22;6277938;28;20170;-80
2021/09/03 12:22:18;;;;;;;3.58;2.70;;;;;;;21.99;50.42;100547.78;6295674;28;20119;-81
2021/09/03 12:25:30;;;;;;;4.82;3.00;;;;;;;21.91;52.13;100533.47;6277854;28;20491;-82
2021/09/03 12:28:31;;;;;;;4.95;3.00;;;;;;;21.88;51.91;100539.09;6261175;28;20055;-81
2021/09/03 12:31:32;;;;;;;3.83;2.83;;;;;;;22.54;51.82;100531.53;6277546;28;20105;-80
2021/09/03 12:34:34;;;;;;;5.93;3.07;;;;;;;23.32;46.76;100523.25;6244557;28;20483;-81
2021/09/03 12:37:35;;;;;;;7.93;3.17;;;;;;;22.99;46.72;100522.34;6261034;28;20617;-80
2021/09/03 12:40:36;;;;;;;9.50;3.07;;;;;;;22.73;48.67;100522.44;6276437;28;20052;-81
2021/09/03 12:43:37;;;;;;;5.67;3.13;;;;;;;22.67;53.12;100523.09;6277429;28;20098;-81
2021/09/03 12:46:45;;;;;;;;;;;;;;;22.47;50.50;100514.56;6277626;28;20288;-81
2021/09/03 12:49:47;;;;;;;5.15;2.88;;;;;;;22.33;51.62;100513.31;6277148;28;19924;-81
2021/09/03 12:52:49;;;;;;;4.63;3.33;;;;;;;22.18;52.54;100513.06;6277328;28;20043;-81
2021/09/03 12:55:52;;;;;;;5.85;3.03;;;;;;;22.03;47.56;100501.31;6260611;28;20040;-80
2021/09/03 12:58:52;;;;;;;5.60;2.97;;;;;;;21.85;48.73;100499.56;6276970;28;20128;-80
2021/09/03 13:01:53;;;;;;;4.63;2.70;;;;;;;21.71;48.38;100494.81;6260744;28;20042;-81
2021/09/03 13:04:54;;;;;;;8.40;2.90;;;;;;;21.76;50.05;100491.69;6260549;28;20044;-81
2021/09/03 13:07:55;;;;;;;5.97;3.03;;;;;;;21.91;53.31;100492.81;6277040;28;20040;-81
2021/09/03 13:10:56;;;;;;;5.93;3.45;;;;;;;22.08;53.84;100477.78;6243894;28;20105;-81
2021/09/03 13:13:57;;;;;;;4.27;2.77;;;;;;;22.36;52.77;100477.59;6260297;28;20492;-81
2021/09/03 13:16:58;;;;;;;8.77;3.40;;;;;;;22.58;46.08;100476.19;6260495;28;20098;-81
2021/09/03 13:19:59;;;;;;;;;;;;;;;22.81;47.40;100463.13;6277536;28;20048;-80
2021/09/03 13:23:00;;;;;;;5.55;2.90;;;;;;;23.11;43.81;100456.38;6276884;28;20332;-80
2021/09/03 13:26:01;;;;;;;8.40;3.40;;;;;;;23.01;46.46;100455.69;6276729;28;20040;-80
2021/09/03 13:29:03;;;;;;;5.55;3.30;;;;;;;22.91;50.39;100448.66;6276843;28;20403;-80
2021/09/03 13:32:04;;;;;;;4.63;3.20;;;;;;;22.90;49.05;100447.00;6276792;28;20040;-81
2021/09/03 13:35:05;;;;;;;5.50;3.65;;;;;;;22.74;46.10;100450.47;6260268;28;20085;-80
2021/09/03 13:38:07;;;;;;;6.18;3.10;;;;;;;22.74;47.13;100444.31;6260448;28;20048;-81
2021/09/03 13:41:07;;;;;;;5.20;2.83;;;;;;;22.82;49.37;100438.19;6276378;28;20053;-81
2021/09/03 13:44:08;;;;;;;6.93;3.30;;;;;;;22.71;45.98;100434.00;6260379;28;20137;-87
2021/09/03 13:47:09;;;;;;;4.10;3.10;;;;;;;22.79;44.22;100435.84;6243543;28;20372;-82
2021/09/03 13:50:12;;;;;;;8.27;3.00;;;;;;;22.79;44.41;100427.88;6261049;28;20359;-82
2021/09/03 13:53:13;;;;;;;4.75;2.65;;;;;;;22.74;44.77;100423.06;6299232;28;20632;-81
2021/09/03 13:56:18;;;;;;;5.00;3.10;;;;;;;22.66;44.58;100410.56;6281695;28;20052;-82
2021/09/03 13:59:18;;;;;;;5.35;3.15;;;;;;;22.57;47.85;100411.56;6248416;28;20461;-89
2021/09/03 14:02:19;;;;;;;5.77;3.60;;;;;;;22.38;45.55;100402.00;6248463;28;20041;-85
2021/09/03 14:05:20;;;;;;;5.13;3.30;;;;;;;22.43;45.46;100407.69;6248249;28;20040;-81